createdAt,value
2022-08-14T00:01:00.905Z,61.35
2022-08-14T00:03:29.278Z,61.42
2022-08-14T00:05:58.221Z,62.47
2022-08-14T00:08:44.798Z,61.90
2022-08-14T00:11:11.695Z,62.82
2022-08-14T00:13:38.593Z,61.98
2022-08-14T00:16:04.819Z,62.94
2022-08-14T00:19:06.113Z,62.45
2022-08-14T00:21:20.231Z,63.61
2022-08-14T00:23:54.375Z,64.08
2022-08-14T00:26:27.685Z,64.47
2022-08-14T00:28:55.958Z,64.84
2022-08-14T00:31:30.839Z,66.44
2022-08-14T00:34:36.957Z,66.07
2022-08-14T00:36:54.838Z,67.56
2022-08-14T00:39:25.692Z,66.60
2022-08-14T00:41:52.053Z,66.88
2022-08-14T00:44:32.611Z,66.21
2022-08-14T00:46:59.368Z,66.80
2022-08-14T00:49:25.551Z,69.12
2022-08-14T00:51:52.864Z,67.83
2022-08-14T00:54:21.846Z,68.35
2022-08-14T00:56:48.502Z,67.66
2022-08-14T00:59:14.715Z,68.12
2022-08-14T01:01:42.470Z,68.13
2022-08-14T01:04:08.762Z,68.55
2022-08-14T01:06:55.293Z,68.41
2022-08-14T01:09:21.662Z,68.59
2022-08-14T01:11:57.328Z,69.16
2022-08-14T01:14:29.751Z,69.58
2022-08-14T01:16:56.127Z,69.30
2022-08-14T01:19:22.322Z,69.47
2022-08-14T01:21:52.968Z,69.71
2022-08-14T01:24:22.884Z,69.67
2022-08-14T01:26:56.921Z,69.46
2022-08-14T01:29:48.658Z,69.76
2022-08-14T01:32:10.512Z,69.84
2022-08-14T01:35:18.013Z,70.28
2022-08-14T01:37:23.099Z,69.71
2022-08-14T01:39:49.351Z,69.43
2022-08-14T01:42:31.495Z,69.86
2022-08-14T01:45:02.129Z,69.86
2022-08-14T01:47:37.067Z,69.60
2022-08-14T01:50:03.779Z,69.54
2022-08-14T01:52:34.080Z,70.18
2022-08-14T01:55:16.326Z,70.56
2022-08-14T01:58:01.069Z,72.30
2022-08-14T02:00:29.446Z,72.47
2022-08-14T02:02:57.299Z,73.30
2022-08-14T02:05:23.927Z,73.55
2022-08-14T02:07:55.750Z,72.49
2022-08-14T02:10:36.608Z,74.41
2022-08-14T02:13:13.088Z,74.53
2022-08-14T02:15:39.305Z,74.34
2022-08-14T02:18:09.638Z,75.41
2022-08-14T02:20:37.503Z,74.57
2022-08-14T02:23:03.694Z,76.35
2022-08-14T02:25:31.102Z,76.30
2022-08-14T02:28:25.235Z,76.72
2022-08-14T02:30:43.564Z,77.98
2022-08-14T02:33:11.630Z,78.51
2022-08-14T02:35:40.765Z,78.53
2022-08-14T02:38:07.332Z,77.85
2022-08-14T02:40:38.172Z,79.76
2022-08-14T02:43:05.526Z,80.39
2022-08-14T02:45:38.800Z,80.81
2022-08-14T02:49:04.728Z,82.01
2022-08-14T02:50:57.208Z,82.04
2022-08-14T02:53:27.241Z,82.83
2022-08-14T02:55:55.722Z,83.65
2022-08-14T02:58:30.580Z,85.13
2022-08-14T03:00:57.512Z,85.77
2022-08-14T03:03:23.811Z,85.71
2022-08-14T03:05:50.737Z,85.08
2022-08-14T03:08:20.470Z,86.29
2022-08-14T03:10:48.702Z,86.70
2022-08-14T03:13:19.736Z,87.90
2022-08-14T03:15:47.478Z,87.83
2022-08-14T03:18:18.502Z,88.63
2022-08-14T03:20:44.841Z,89.01
2022-08-14T03:23:12.610Z,89.02
2022-08-14T03:25:38.795Z,90.08
2022-08-14T03:28:07.001Z,89.22
2022-08-14T03:30:39.602Z,89.59
2022-08-14T03:33:06.997Z,88.82
2022-08-14T03:35:40.400Z,87.51
2022-08-14T03:39:11.719Z,85.62
2022-08-14T03:41:06.435Z,84.74
2022-08-14T03:43:33.267Z,83.06
2022-08-14T03:45:59.699Z,84.73
2022-08-14T03:48:30.245Z,84.59
2022-08-14T03:50:57.563Z,84.79
2022-08-14T03:53:25.100Z,86.03
2022-08-14T03:55:51.360Z,86.73
2022-08-14T03:58:23.726Z,86.62
2022-08-14T04:01:01.515Z,85.62
2022-08-14T04:03:27.746Z,86.53
2022-08-14T04:05:55.310Z,86.73
2022-08-14T04:08:29.441Z,86.36
2022-08-14T04:10:57.098Z,86.74
2022-08-14T04:13:23.735Z,85.71
2022-08-14T04:15:56.177Z,85.44
2022-08-14T04:18:28.413Z,84.86
2022-08-14T04:20:55.985Z,86.05
2022-08-14T04:23:23.786Z,86.65
2022-08-14T04:25:56.263Z,86.67
2022-08-14T04:29:01.923Z,88.62
2022-08-14T04:31:08.843Z,87.36
2022-08-14T04:33:37.294Z,87.64
2022-08-14T04:36:03.649Z,88.66
2022-08-14T04:38:36.596Z,88.98
2022-08-14T04:41:04.546Z,88.96
2022-08-14T04:43:38.623Z,88.86
2022-08-14T04:46:06.798Z,90.29
2022-08-14T04:48:43.466Z,89.56
2022-08-14T04:51:17.177Z,90.66
2022-08-14T04:53:43.698Z,93.22
2022-08-14T04:56:10.721Z,92.99
2022-08-14T04:58:56.481Z,94.25
2022-08-14T05:01:22.749Z,94.99
2022-08-14T05:03:49.027Z,94.65
2022-08-14T05:06:37.248Z,94.80
2022-08-14T05:09:03.063Z,96.03
2022-08-14T05:11:29.263Z,95.55
2022-08-14T05:14:34.116Z,95.94
2022-08-14T05:16:41.826Z,95.92
2022-08-14T05:19:18.973Z,94.25
2022-08-14T05:21:57.554Z,92.83
2022-08-14T05:24:27.089Z,91.16
2022-08-14T05:26:53.316Z,89.72
2022-08-14T05:29:19.557Z,90.16
2022-08-14T05:31:45.889Z,86.90
2022-08-14T05:34:12.076Z,87.53
2022-08-14T05:36:39.400Z,87.93
2022-08-14T05:39:05.729Z,88.06
2022-08-14T05:41:53.656Z,86.61
2022-08-14T05:44:20.388Z,83.11
2022-08-14T05:46:46.666Z,83.39
2022-08-14T05:49:13.066Z,84.09
2022-08-14T05:51:39.264Z,81.46
2022-08-14T05:54:13.611Z,80.03
2022-08-14T05:56:51.598Z,78.75
2022-08-14T05:59:17.921Z,78.83
2022-08-14T06:01:45.626Z,78.64
2022-08-14T06:04:12.856Z,77.46
2022-08-14T06:06:39.044Z,76.83
2022-08-14T06:09:05.345Z,75.34
2022-08-14T06:11:35.953Z,72.51
2022-08-14T06:14:03.683Z,69.19
2022-08-14T06:16:33.081Z,71.30
2022-08-14T06:18:59.565Z,69.25
2022-08-14T06:21:25.937Z,71.29
2022-08-14T06:23:52.250Z,69.29
2022-08-14T06:26:20.582Z,68.60
2022-08-14T06:28:48.445Z,69.77
2022-08-14T06:31:18.720Z,69.64
2022-08-14T06:35:09.882Z,68.00
2022-08-14T06:36:32.854Z,66.61
2022-08-14T06:38:59.024Z,67.58
2022-08-14T06:41:56.915Z,64.21
2022-08-14T06:44:11.669Z,65.93
2022-08-14T06:46:38.237Z,61.79
2022-08-14T06:49:04.414Z,62.85
2022-08-14T06:51:38.679Z,66.46
2022-08-14T06:54:10.941Z,61.20
2022-08-14T06:56:38.245Z,60.27
2022-08-14T06:59:05.364Z,60.21
2022-08-14T07:01:32.443Z,57.04
2022-08-14T07:03:58.641Z,57.51
2022-08-14T07:06:46.530Z,59.73
2022-08-14T07:09:11.683Z,58.50
2022-08-14T07:11:37.871Z,57.94
2022-08-14T07:14:04.089Z,54.73
2022-08-14T07:16:30.401Z,54.86
2022-08-14T07:18:56.548Z,55.01
2022-08-14T07:21:22.707Z,56.79
2022-08-14T07:23:48.886Z,55.17
2022-08-14T07:26:17.757Z,54.58
2022-08-14T07:28:44.087Z,53.37
2022-08-14T07:31:10.359Z,52.71
2022-08-14T07:33:36.524Z,52.03
2022-08-14T07:36:03.365Z,52.89
2022-08-14T07:38:52.334Z,51.73
2022-08-14T07:41:18.717Z,50.70
2022-08-14T07:43:47.640Z,52.63
2022-08-14T07:46:28.361Z,53.11
2022-08-14T07:48:55.002Z,50.46
2022-08-14T07:51:22.151Z,51.31
2022-08-14T07:53:48.520Z,50.23
2022-08-14T07:56:46.958Z,49.97
2022-08-14T07:59:09.266Z,48.93
2022-08-14T08:01:35.460Z,49.65
2022-08-14T08:04:01.620Z,48.60
2022-08-14T08:06:29.597Z,48.09
2022-08-14T08:09:01.404Z,47.57
2022-08-14T08:11:29.594Z,46.23
2022-08-14T08:14:01.253Z,44.41
2022-08-14T08:16:27.756Z,44.78
2022-08-14T08:18:58.286Z,45.93
2022-08-14T08:21:33.402Z,44.36
2022-08-14T08:24:01.778Z,45.65
2022-08-14T08:26:29.821Z,46.08
2022-08-14T08:28:56.146Z,45.67
2022-08-14T08:31:23.796Z,42.90
2022-08-14T08:33:58.934Z,44.04
2022-08-14T08:36:25.234Z,43.95
2022-08-14T08:39:18.871Z,43.01
2022-08-14T08:41:43.455Z,43.13
2022-08-14T08:44:17.427Z,42.66
2022-08-14T08:46:57.212Z,41.63
2022-08-14T08:49:36.377Z,40.71
2022-08-14T08:52:15.217Z,41.72
2022-08-14T08:54:50.995Z,40.80
2022-08-14T08:57:21.518Z,38.62
2022-08-14T08:59:47.887Z,36.79
2022-08-14T09:02:21.579Z,37.05
2022-08-14T09:04:53.541Z,38.71
2022-08-14T09:07:20.067Z,37.00
2022-08-14T09:09:54.543Z,36.37
2022-08-14T09:12:24.957Z,39.37
2022-08-14T09:14:53.325Z,36.41
2022-08-14T09:17:19.494Z,36.62
2022-08-14T09:19:45.701Z,36.32
2022-08-14T09:22:35.281Z,38.23
2022-08-14T09:24:58.118Z,35.65
2022-08-14T09:27:25.850Z,35.01
2022-08-14T09:29:54.133Z,35.22
2022-08-14T09:33:08.976Z,36.26
2022-08-14T09:35:08.476Z,37.37
2022-08-14T09:37:34.880Z,36.92
2022-08-14T09:40:01.092Z,37.28
2022-08-14T09:42:33.434Z,34.47
2022-08-14T09:45:02.919Z,33.42
2022-08-14T09:47:34.395Z,32.96
2022-08-14T09:50:00.605Z,34.43
2022-08-14T09:52:34.175Z,32.22
2022-08-14T09:55:00.965Z,31.98
2022-08-14T09:57:27.517Z,32.41
2022-08-14T09:59:54.006Z,32.15
2022-08-14T10:02:20.382Z,33.18
2022-08-14T10:04:49.975Z,30.86
2022-08-14T10:07:16.350Z,27.94
2022-08-14T10:09:42.512Z,28.25
2022-08-14T10:12:13.314Z,26.80
2022-08-14T10:14:54.846Z,28.14
2022-08-14T10:17:21.039Z,28.32
2022-08-14T10:19:49.216Z,30.70
2022-08-14T10:23:14.696Z,28.31
2022-08-14T10:25:01.563Z,29.27
2022-08-14T10:27:28.153Z,28.00
2022-08-14T10:29:55.121Z,29.20
2022-08-14T10:32:28.621Z,27.51
2022-08-14T10:35:02.668Z,28.45
2022-08-14T10:37:31.545Z,29.22
2022-08-14T10:40:05.286Z,29.19
2022-08-14T10:42:32.099Z,29.36
2022-08-14T10:44:58.896Z,28.61
2022-08-14T10:47:40.690Z,30.09
2022-08-14T10:50:12.205Z,28.54
2022-08-14T10:52:42.298Z,28.46
2022-08-14T10:55:12.798Z,27.56
2022-08-14T10:57:39.426Z,27.67
2022-08-14T11:00:07.083Z,27.93
2022-08-14T11:02:45.084Z,27.72
2022-08-14T11:05:19.458Z,27.40
2022-08-14T11:07:45.621Z,27.55
2022-08-14T11:10:21.431Z,28.64
2022-08-14T11:12:51.332Z,26.59
2022-08-14T11:15:17.496Z,27.07
2022-08-14T11:17:45.950Z,26.17
2022-08-14T11:20:14.018Z,26.66
2022-08-14T11:22:56.510Z,26.62
2022-08-14T11:25:24.883Z,27.28
2022-08-14T11:28:11.013Z,26.30
2022-08-14T11:30:50.374Z,26.62
2022-08-14T11:33:18.683Z,26.18
2022-08-14T11:35:47.592Z,27.93
2022-08-14T11:38:17.012Z,28.11
2022-08-14T11:40:47.015Z,25.19
2022-08-14T11:45:39.968Z,26.70
2022-08-14T11:48:13.597Z,26.29
2022-08-14T11:50:52.327Z,25.87
2022-08-14T11:53:18.508Z,25.54
2022-08-14T11:55:44.693Z,25.76
2022-08-14T11:58:15.767Z,25.59
2022-08-14T12:00:50.705Z,25.66
2022-08-14T12:03:37.380Z,26.17
2022-08-14T12:06:04.333Z,25.59
2022-08-14T12:08:30.485Z,24.74
2022-08-14T12:10:56.664Z,25.08
2022-08-14T12:13:22.860Z,26.11
2022-08-14T12:15:53.651Z,27.47
2022-08-14T12:18:20.032Z,26.13
2022-08-14T12:20:52.439Z,25.91
2022-08-14T12:23:19.477Z,24.78
2022-08-14T12:25:45.644Z,24.04
2022-08-14T12:28:34.075Z,24.59
2022-08-14T12:31:14.025Z,24.41
2022-08-14T12:33:47.037Z,25.27
2022-08-14T12:36:20.508Z,23.83
2022-08-14T12:38:47.040Z,26.46
2022-08-14T12:41:16.467Z,24.84
2022-08-14T12:43:47.135Z,24.05
2022-08-14T12:46:26.799Z,24.48
2022-08-14T12:48:53.795Z,27.29
2022-08-14T12:51:21.589Z,25.06
2022-08-14T12:53:47.981Z,24.50
2022-08-14T12:56:22.674Z,24.15
2022-08-14T12:58:59.218Z,23.05
2022-08-14T13:01:26.091Z,23.99
2022-08-14T13:03:52.456Z,24.81
2022-08-14T13:06:18.643Z,24.60
2022-08-14T13:08:52.643Z,24.38
2022-08-14T13:11:19.650Z,24.31
2022-08-14T13:13:46.600Z,26.83
2022-08-14T13:16:20.984Z,28.00
2022-08-14T13:19:01.422Z,24.50
2022-08-14T13:21:27.615Z,23.66
2022-08-14T13:23:55.494Z,23.04
2022-08-14T13:26:23.771Z,23.48
2022-08-14T13:29:02.297Z,23.44
2022-08-14T13:31:30.069Z,23.00
2022-08-14T13:33:56.569Z,23.35
2022-08-14T13:36:51.942Z,25.66
2022-08-14T13:39:10.486Z,24.00
2022-08-14T13:41:39.087Z,25.38
2022-08-14T13:44:13.615Z,23.95
2022-08-14T13:46:40.284Z,24.31
2022-08-14T13:49:09.926Z,23.80
2022-08-14T13:51:36.084Z,23.84
2022-08-14T13:54:11.016Z,24.64
2022-08-14T13:56:37.526Z,22.83
2022-08-14T13:59:04.621Z,23.87
2022-08-14T14:01:33.888Z,23.25
2022-08-14T14:04:02.491Z,24.50
2022-08-14T14:06:29.969Z,23.58
2022-08-14T14:08:56.149Z,24.37
2022-08-14T14:11:25.364Z,24.22
2022-08-14T14:13:56.165Z,23.05
2022-08-14T14:16:30.111Z,22.81
2022-08-14T14:18:57.486Z,25.60
2022-08-14T14:21:23.735Z,23.45
2022-08-14T14:23:49.970Z,22.94
2022-08-14T14:26:20.000Z,23.47
2022-08-14T14:28:49.570Z,23.14
2022-08-14T14:31:16.468Z,22.17
2022-08-14T14:33:47.740Z,23.26
2022-08-14T14:36:15.038Z,25.43
2022-08-14T14:38:47.248Z,22.48
2022-08-14T14:41:15.462Z,24.66
2022-08-14T14:43:41.643Z,22.20
2022-08-14T14:46:10.813Z,22.21
2022-08-14T14:48:39.480Z,23.84
2022-08-14T14:51:05.671Z,22.80
2022-08-14T14:53:32.226Z,21.80
2022-08-14T14:56:50.877Z,22.82
2022-08-14T14:58:51.594Z,24.07
2022-08-14T15:01:18.841Z,25.36
2022-08-14T15:03:45.553Z,24.20
2022-08-14T15:06:12.732Z,23.23
2022-08-14T15:08:56.511Z,26.41
2022-08-14T15:11:25.806Z,26.25
2022-08-14T15:13:56.385Z,23.20
2022-08-14T15:16:22.596Z,25.99
2022-08-14T15:18:50.996Z,24.36
2022-08-14T15:21:19.061Z,24.69
2022-08-14T15:23:45.881Z,23.93
2022-08-14T15:26:12.044Z,23.10
2022-08-14T15:28:39.642Z,24.11
2022-08-14T15:31:05.837Z,23.33
2022-08-14T15:33:35.798Z,22.64
2022-08-14T15:36:02.123Z,22.71
2022-08-14T15:38:29.299Z,24.27
2022-08-14T15:40:56.233Z,23.28
2022-08-14T15:43:22.614Z,24.49
2022-08-14T15:45:48.858Z,25.80
2022-08-14T15:48:22.349Z,23.19
2022-08-14T15:50:49.243Z,22.82
2022-08-14T15:53:17.216Z,23.07
2022-08-14T15:55:43.418Z,25.33
2022-08-14T15:58:14.266Z,24.36
2022-08-14T16:00:44.412Z,26.59
2022-08-14T16:03:16.877Z,25.87
2022-08-14T16:05:43.182Z,27.46
2022-08-14T16:08:28.807Z,28.18
2022-08-14T16:10:55.781Z,23.41
2022-08-14T16:13:39.613Z,25.16
2022-08-14T16:16:49.279Z,22.60
2022-08-14T16:18:54.441Z,24.13
2022-08-14T16:21:20.667Z,23.98
2022-08-14T16:23:48.072Z,24.90
2022-08-14T16:26:19.929Z,22.23
2022-08-14T16:28:46.257Z,22.90
2022-08-14T16:31:17.510Z,22.62
2022-08-14T16:34:00.192Z,23.42
2022-08-14T16:36:30.449Z,23.97
2022-08-14T16:38:57.518Z,24.16
2022-08-14T16:41:26.533Z,24.94
2022-08-14T16:43:53.062Z,24.36
2022-08-14T16:46:25.602Z,24.28
2022-08-14T16:48:57.070Z,24.24
2022-08-14T16:51:25.076Z,23.57
2022-08-14T16:53:51.315Z,24.83
2022-08-14T16:56:23.743Z,24.28
2022-08-14T16:58:50.351Z,24.60
2022-08-14T17:01:24.670Z,23.71
2022-08-14T17:03:51.496Z,24.45
2022-08-14T17:06:30.818Z,25.46
2022-08-14T17:08:59.985Z,24.02
2022-08-14T17:11:27.738Z,23.68
2022-08-14T17:14:00.283Z,24.25
2022-08-14T17:16:27.471Z,24.03
2022-08-14T17:18:55.434Z,24.22
2022-08-14T17:21:31.348Z,24.95
2022-08-14T17:23:58.264Z,25.11
2022-08-14T17:26:24.599Z,24.46
2022-08-14T17:28:56.658Z,25.46
2022-08-14T17:31:22.987Z,25.38
2022-08-14T17:33:52.433Z,25.08
2022-08-14T17:36:20.927Z,25.27
2022-08-14T17:38:59.612Z,26.22
2022-08-14T17:41:32.721Z,26.00
2022-08-14T17:44:02.352Z,26.92
2022-08-14T17:46:32.551Z,26.65
2022-08-14T17:49:14.229Z,27.33
2022-08-14T17:51:53.687Z,28.63
2022-08-14T17:54:22.825Z,28.47
2022-08-14T17:57:01.276Z,30.04
2022-08-14T17:59:27.507Z,28.92
2022-08-14T18:01:54.539Z,28.30
2022-08-14T18:04:28.424Z,28.31
2022-08-14T18:06:58.514Z,29.88
2022-08-14T18:09:36.265Z,30.04
2022-08-14T18:12:03.556Z,31.24
2022-08-14T18:14:32.875Z,32.74
2022-08-14T18:16:59.768Z,32.72
2022-08-14T18:19:27.072Z,32.77
2022-08-14T18:21:56.934Z,33.40
2022-08-14T18:24:29.773Z,32.49
2022-08-14T18:29:38.010Z,33.65
2022-08-14T18:32:08.771Z,33.39
2022-08-14T18:34:34.954Z,33.79
2022-08-14T18:37:14.349Z,34.35
2022-08-14T18:40:01.815Z,36.19
2022-08-14T18:42:30.715Z,36.72
2022-08-14T18:44:56.961Z,36.19
2022-08-14T18:47:23.165Z,36.25
2022-08-14T18:49:49.406Z,36.26
2022-08-14T18:52:18.930Z,35.14
2022-08-14T18:57:40.591Z,36.60
2022-08-14T19:00:07.231Z,36.17
2022-08-14T19:02:36.055Z,35.81
2022-08-14T19:05:10.265Z,36.53
2022-08-14T19:10:17.293Z,38.13
2022-08-14T19:12:48.730Z,40.05
2022-08-14T19:15:15.174Z,38.35
2022-08-14T19:18:15.047Z,38.19
2022-08-14T19:20:48.133Z,37.03
2022-08-14T19:23:16.679Z,37.11
2022-08-14T19:25:44.416Z,37.62
2022-08-14T19:28:31.029Z,36.99
2022-08-14T19:33:43.045Z,38.67
2022-08-14T19:36:31.542Z,38.52
2022-08-14T19:38:59.476Z,39.67
2022-08-14T19:41:29.580Z,39.05
2022-08-14T19:43:57.527Z,40.35
2022-08-14T19:46:39.512Z,40.10
2022-08-14T19:49:10.118Z,40.60
2022-08-14T19:51:37.849Z,39.90
2022-08-14T19:54:05.707Z,40.61
2022-08-14T19:56:39.830Z,40.31
2022-08-14T19:59:06.121Z,40.39
2022-08-14T20:01:37.579Z,41.24
2022-08-14T20:04:04.196Z,41.88
2022-08-14T20:06:31.353Z,43.17
2022-08-14T20:10:58.350Z,43.91
2022-08-14T20:12:02.693Z,44.10
2022-08-14T20:14:30.615Z,45.24
2022-08-14T20:19:49.596Z,46.54
2022-08-14T20:22:37.372Z,46.36
2022-08-14T20:25:05.850Z,46.82
2022-08-14T20:27:33.711Z,46.94
2022-08-14T20:30:26.380Z,47.28
2022-08-14T20:32:47.029Z,47.23
2022-08-14T20:35:23.983Z,47.95
2022-08-14T20:38:00.095Z,47.09
2022-08-14T20:40:38.496Z,48.40
2022-08-14T20:43:16.796Z,49.37
2022-08-14T20:45:43.083Z,48.97
2022-08-14T20:50:53.392Z,46.03
2022-08-14T20:53:19.577Z,46.87
2022-08-14T20:55:49.814Z,46.77
2022-08-14T20:58:38.720Z,48.18
2022-08-14T21:01:07.301Z,49.63
2022-08-14T21:03:36.079Z,49.49
2022-08-14T21:06:22.391Z,50.87
2022-08-14T21:08:49.234Z,51.12
2022-08-14T21:11:17.842Z,52.71
2022-08-14T21:14:21.118Z,53.07
2022-08-14T21:16:35.094Z,52.55
2022-08-14T21:19:03.943Z,50.94
2022-08-14T21:21:41.777Z,50.99
2022-08-14T21:24:08.580Z,51.07
2022-08-14T21:26:52.574Z,51.47
2022-08-14T21:29:22.815Z,51.15
2022-08-14T21:31:55.670Z,50.87
2022-08-14T21:34:27.139Z,51.91
2022-08-14T21:36:57.052Z,52.35
2022-08-14T21:39:24.134Z,52.32
2022-08-14T21:41:50.552Z,51.70
2022-08-14T21:44:24.820Z,51.37
2022-08-14T21:47:09.726Z,52.19
2022-08-14T21:49:38.942Z,52.81
2022-08-14T21:52:51.454Z,52.56
2022-08-14T21:54:52.697Z,52.31
2022-08-14T21:57:19.831Z,53.53
2022-08-14T22:00:30.250Z,52.76
2022-08-14T22:02:52.184Z,53.66
2022-08-14T22:05:22.963Z,52.95
2022-08-14T22:07:55.266Z,53.40
2022-08-14T22:10:24.262Z,53.47
2022-08-14T22:13:00.634Z,53.58
2022-08-14T22:15:27.784Z,53.52
2022-08-14T22:17:54.454Z,51.66
2022-08-14T22:20:21.131Z,50.78
2022-08-14T22:22:47.445Z,52.34
2022-08-14T22:25:17.449Z,53.40
2022-08-14T22:27:44.263Z,54.17
2022-08-14T22:30:22.650Z,53.50
2022-08-14T22:32:57.933Z,53.17
2022-08-14T22:35:24.623Z,53.94
2022-08-14T22:38:36.469Z,52.90
2022-08-14T22:40:59.444Z,54.03
2022-08-14T22:43:23.348Z,55.11
2022-08-14T22:45:55.409Z,55.80
2022-08-14T22:48:22.172Z,58.47
2022-08-14T22:50:53.342Z,60.14
2022-08-14T22:53:20.023Z,60.66
2022-08-14T22:55:46.228Z,60.42
2022-08-14T22:58:17.267Z,60.19
2022-08-14T23:00:43.807Z,60.50
2022-08-14T23:03:17.393Z,59.39
2022-08-14T23:05:52.496Z,59.71
2022-08-14T23:08:59.556Z,60.67
2022-08-14T23:11:05.636Z,60.90
2022-08-14T23:13:32.656Z,60.90
2022-08-14T23:15:59.414Z,60.31
2022-08-14T23:18:29.452Z,60.58
2022-08-14T23:20:56.190Z,60.06
2022-08-14T23:23:23.274Z,60.46
2022-08-14T23:25:59.024Z,61.54
2022-08-14T23:28:33.346Z,61.00
2022-08-14T23:31:14.067Z,61.86
2022-08-14T23:33:45.746Z,61.60
2022-08-14T23:36:31.840Z,61.70
2022-08-14T23:38:58.746Z,61.49
2022-08-14T23:41:24.991Z,63.10
2022-08-14T23:43:51.571Z,62.23
2022-08-14T23:46:18.623Z,63.46
2022-08-14T23:48:46.443Z,63.54
2022-08-14T23:51:13.275Z,64.38
2022-08-14T23:53:48.449Z,64.45
2022-08-14T23:56:16.080Z,64.63
2022-08-14T23:58:44.247Z,64.79
